Time;durP1;ratioP1;P1;durP2;ratioP2;P2;SDS_P1;SDS_P2;PMS_P1;PMS_P2;Temp;Humidity;BMP_temperature;BMP_pressure;BME280_temperature;BME280_humidity;BME280_pressure;Samples;Min_cycle;Max_cycle;Signal;HPM_P1;HPM_P2
2021/08/07 00:01:38;;;;;;;16.07;7.20;;;;;;;20.55;92.66;99847.68;1676746;84;21487;-64
2021/08/07 00:04:05;;;;;;;12.45;6.58;;;;;;;20.57;92.92;99852.48;1646105;86;21063;-64
2021/08/07 00:06:32;;;;;;;12.40;6.20;;;;;;;20.59;92.82;99850.48;1667231;84;21108;-64
2021/08/07 00:08:59;;;;;;;13.38;6.45;;;;;;;20.61;92.93;99849.83;1679065;84;21452;-64
2021/08/07 00:11:25;;;;;;;15.38;6.35;;;;;;;20.64;92.69;99854.15;1677774;84;21023;-64
2021/08/07 00:13:52;;;;;;;14.83;6.50;;;;;;;20.68;92.97;99854.73;1671281;84;21149;-63
2021/08/07 00:16:20;;;;;;;13.72;6.85;;;;;;;20.69;93.33;99848.28;1706187;83;21313;-65
2021/08/07 00:18:47;;;;;;;15.72;7.17;;;;;;;20.70;93.31;99860.38;1714786;83;21083;-65
2021/08/07 00:21:14;;;;;;;15.20;7.97;;;;;;;20.69;93.33;99870.92;1706688;83;21092;-64
2021/08/07 00:23:41;;;;;;;14.53;8.15;;;;;;;20.67;93.56;99866.60;1701901;83;21067;-64
2021/08/07 00:26:08;;;;;;;20.27;7.87;;;;;;;20.65;93.91;99875.41;1706557;83;21138;-65
2021/08/07 00:28:35;;;;;;;14.73;7.47;;;;;;;20.69;94.41;99880.97;1724267;83;21623;-63
2021/08/07 00:31:02;;;;;;;11.88;7.22;;;;;;;20.71;94.31;99881.69;1716636;82;21147;-63
2021/08/07 00:33:29;;;;;;;14.87;7.42;;;;;;;20.71;94.43;99899.38;1713912;83;21082;-63
2021/08/07 00:35:56;;;;;;;11.40;7.25;;;;;;;20.69;94.83;99884.53;1713203;82;21581;-63
2021/08/07 00:38:24;;;;;;;10.93;7.33;;;;;;;20.68;95.12;99870.56;1708634;83;21118;-63
2021/08/07 00:40:51;;;;;;;15.30;7.50;;;;;;;20.68;95.74;99864.27;1709425;83;20964;-64
2021/08/07 00:43:19;;;;;;;12.20;7.05;;;;;;;20.70;96.07;99880.81;1704951;83;21517;-64
2021/08/07 00:45:51;;;;;;;13.13;7.03;;;;;;;20.70;96.17;99878.60;1704544;83;21505;-64
2021/08/07 00:48:19;;;;;;;17.45;7.75;;;;;;;20.68;96.33;99879.25;1703562;83;21082;-63
2021/08/07 00:50:48;;;;;;;14.20;7.35;;;;;;;20.65;96.89;99873.56;1723287;83;21887;-64
2021/08/07 00:53:18;;;;;;;15.90;8.40;;;;;;;20.64;97.33;99874.57;1705088;83;21047;-63
2021/08/07 00:55:46;;;;;;;18.57;7.87;;;;;;;20.63;97.68;99876.06;1712482;81;21147;-63
2021/08/07 00:58:13;;;;;;;16.67;7.90;;;;;;;20.60;98.40;99866.33;1717179;82;21090;-63
2021/08/07 01:00:40;;;;;;;17.92;8.35;;;;;;;20.60;98.91;99868.53;1711946;83;21122;-64
2021/08/07 01:03:27;;;;;;;16.23;8.48;;;;;;;20.61;99.17;99877.58;1696839;83;21146;-64
2021/08/07 01:06:20;;;;;;;14.40;8.30;;;;;;;20.58;99.31;99877.34;1701558;83;21057;-63
2021/08/07 01:09:03;;;;;;;18.80;8.80;;;;;;;20.59;99.73;99892.69;1715556;83;20922;-63
2021/08/07 01:11:48;;;;;;;17.02;8.30;;;;;;;20.59;99.86;99880.43;1720868;83;22340;-64
2021/08/07 01:14:17;;;;;;;10.82;7.70;;;;;;;20.58;100.00;99877.86;1718522;82;21081;-64
2021/08/07 01:16:46;;;;;;;17.17;8.55;;;;;;;20.55;100.00;99876.75;1715445;83;21052;-64
2021/08/07 01:19:17;;;;;;;18.82;8.88;;;;;;;20.53;100.00;99883.72;1714805;83;21050;-64
2021/08/07 01:21:50;;;;;;;18.48;9.00;;;;;;;20.49;100.00;99876.84;1726891;81;21025;-64
2021/08/07 01:24:41;;;;;;;24.00;9.38;;;;;;;20.44;100.00;99885.90;1705488;83;21076;-63
2021/08/07 01:27:23;;;;;;;18.35;8.33;;;;;;;20.43;100.00;99878.73;1686495;83;21044;-63
2021/08/07 01:29:53;;;;;;;18.37;8.15;;;;;;;20.41;100.00;99866.64;1721675;82;21586;-63
2021/08/07 01:32:25;;;;;;;18.17;9.28;;;;;;;20.42;100.00;99868.36;1716654;83;21465;-63
2021/08/07 01:34:54;;;;;;;14.07;8.38;;;;;;;20.41;100.00;99856.23;1705265;83;21041;-64
2021/08/07 01:37:23;;;;;;;12.53;7.45;;;;;;;20.37;100.00;99851.59;1742912;81;21035;-64
2021/08/07 01:40:09;;;;;;;13.10;8.40;;;;;;;20.33;100.00;99851.48;1694478;83;21084;-63
2021/08/07 01:42:38;;;;;;;17.98;8.63;;;;;;;20.30;100.00;99858.09;1666538;84;21118;-63
2021/08/07 01:45:07;;;;;;;19.27;9.15;;;;;;;20.30;100.00;99852.65;1696760;83;20955;-64
2021/08/07 01:47:46;;;;;;;13.32;8.13;;;;;;;20.31;100.00;99854.37;1682914;83;21386;-63
2021/08/07 01:50:29;;;;;;;17.45;9.63;;;;;;;20.32;100.00;99857.45;1675373;84;21082;-63
2021/08/07 01:53:09;;;;;;;16.57;8.45;;;;;;;20.31;100.00;99855.73;1607466;86;21155;-64
2021/08/07 01:55:49;;;;;;;16.93;8.40;;;;;;;20.32;100.00;99852.01;1681934;83;21930;-64
2021/08/07 02:01:10;;;;;;;12.18;7.97;;;;;;;20.39;100.00;99875.94;1678378;84;21494;-58
2021/08/07 02:03:39;;;;;;;14.20;7.78;;;;;;;20.36;100.00;99893.91;1681277;83;21559;-64
2021/08/07 02:06:06;;;;;;;15.08;8.40;;;;;;;20.31;100.00;99887.03;1687780;84;21531;-64
2021/08/07 02:08:36;;;;;;;16.05;7.55;;;;;;;20.28;100.00;99887.31;1690454;83;21206;-64
2021/08/07 02:11:03;;;;;;;14.93;8.05;;;;;;;20.24;100.00;99894.03;1684495;84;21168;-63
2021/08/07 02:13:32;;;;;;;13.95;8.90;;;;;;;20.20;100.00;99889.84;1687420;83;21460;-58
2021/08/07 02:16:02;;;;;;;13.08;7.65;;;;;;;20.19;100.00;99897.64;1617662;87;21482;-58
2021/08/07 02:18:31;;;;;;;17.37;8.38;;;;;;;20.21;100.00;99892.92;1667767;84;21222;-58
2021/08/07 02:20:58;;;;;;;18.82;9.25;;;;;;;20.22;100.00;99893.28;1660920;84;21148;-59
2021/08/07 02:23:26;;;;;;;12.05;8.50;;;;;;;20.23;100.00;99895.03;1700846;83;21110;-59
2021/08/07 02:25:58;;;;;;;11.95;7.85;;;;;;;20.24;100.00;99890.44;1681758;84;20987;-59
2021/08/07 02:28:27;;;;;;;11.68;7.90;;;;;;;20.21;100.00;99892.92;1691464;82;21677;-59
2021/08/07 02:30:56;;;;;;;14.80;8.20;;;;;;;20.18;100.00;99889.99;1672725;84;21067;-59
2021/08/07 02:33:24;;;;;;;12.43;8.65;;;;;;;20.15;100.00;99897.56;1662668;84;21132;-59
2021/08/07 02:35:52;;;;;;;18.77;9.23;;;;;;;20.12;100.00;99891.03;1664379;84;21081;-58
2021/08/07 02:38:23;;;;;;;13.80;8.60;;;;;;;20.06;100.00;99899.75;1697353;84;21073;-59
2021/08/07 02:40:50;;;;;;;15.20;7.97;;;;;;;19.99;100.00;99896.19;1687533;84;21069;-64
2021/08/07 02:43:18;;;;;;;15.48;8.78;;;;;;;19.95;100.00;99900.19;1689339;84;21573;-64
2021/08/07 02:45:45;;;;;;;15.15;8.23;;;;;;;19.89;100.00;99904.30;1646326;85;21143;-64
2021/08/07 02:48:14;;;;;;;16.55;7.97;;;;;;;19.86;100.00;99905.05;1677618;82;21129;-64
2021/08/07 02:50:43;;;;;;;18.82;9.30;;;;;;;19.82;100.00;99900.89;1675165;84;20988;-64
2021/08/07 02:53:11;;;;;;;14.73;9.13;;;;;;;19.78;100.00;99900.29;1668825;84;21085;-64
2021/08/07 02:55:39;;;;;;;15.40;8.88;;;;;;;19.76;100.00;99894.97;1675356;84;21067;-63
2021/08/07 02:58:09;;;;;;;16.12;9.33;;;;;;;19.73;100.00;99902.04;1670981;84;21160;-59
2021/08/07 03:00:38;;;;;;;18.05;9.98;;;;;;;19.69;100.00;99893.80;1648204;85;21071;-59
2021/08/07 03:03:06;;;;;;;13.43;8.10;;;;;;;19.65;100.00;99890.98;1675648;84;20950;-63
2021/08/07 03:05:33;;;;;;;19.35;8.98;;;;;;;19.64;100.00;99894.70;1673626;84;21071;-60
2021/08/07 03:08:01;;;;;;;13.80;8.95;;;;;;;19.62;100.00;99885.82;1650874;84;20956;-60
2021/08/07 03:10:33;;;;;;;16.07;8.93;;;;;;;19.57;100.00;99890.80;1688942;84;21467;-64
2021/08/07 03:12:59;;;;;;;13.58;8.55;;;;;;;19.51;100.00;99892.67;1688692;83;21076;-60
2021/08/07 03:15:28;;;;;;;20.30;9.00;;;;;;;19.43;100.00;99913.23;1684200;84;21019;-63
2021/08/07 03:17:56;;;;;;;16.27;8.95;;;;;;;19.34;100.00;99900.41;1680837;84;21142;-58
2021/08/07 03:20:32;;;;;;;14.93;9.30;;;;;;;19.28;100.00;99902.30;1671523;84;21116;-59
2021/08/07 03:23:03;;;;;;;15.60;9.08;;;;;;;19.27;100.00;99918.24;1694505;84;22455;-60
2021/08/07 03:25:31;;;;;;;18.40;9.55;;;;;;;19.26;100.00;99911.09;1688073;84;22164;-64
2021/08/07 03:27:59;;;;;;;19.87;9.88;;;;;;;19.27;100.00;99920.96;1682440;84;21015;-64
2021/08/07 03:30:26;;;;;;;21.20;10.00;;;;;;;19.27;100.00;99925.03;1689002;84;22010;-58
2021/08/07 03:32:53;;;;;;;14.63;9.35;;;;;;;19.27;100.00;99938.63;1687167;83;21420;-59
2021/08/07 03:35:21;;;;;;;18.67;9.68;;;;;;;19.25;100.00;99933.81;1672665;84;21139;-63
2021/08/07 03:37:48;;;;;;;15.38;9.83;;;;;;;19.24;100.00;99922.59;1685404;84;21127;-64
2021/08/07 03:40:15;;;;;;;14.33;9.20;;;;;;;19.21;100.00;99929.12;1684749;84;21076;-59
2021/08/07 03:42:45;;;;;;;15.70;9.85;;;;;;;19.18;100.00;99930.27;1699033;83;20995;-58
2021/08/07 03:45:14;;;;;;;20.27;9.63;;;;;;;19.20;100.00;99948.30;1697413;84;20990;-57
2021/08/07 03:47:53;;;;;;;19.37;9.40;;;;;;;19.22;100.00;99958.02;1691442;84;21139;-58
2021/08/07 03:50:22;;;;;;;25.02;9.05;;;;;;;19.28;100.00;99960.73;1712025;83;21008;-60
2021/08/07 03:52:50;;;;;;;17.87;9.50;;;;;;;19.33;100.00;99971.58;1710240;81;21134;-59
2021/08/07 03:55:17;;;;;;;18.20;9.43;;;;;;;19.33;100.00;99983.81;1698229;83;21038;-59
2021/08/07 03:57:58;;;;;;;13.68;9.58;;;;;;;19.32;100.00;99980.73;1681521;83;21089;-59
2021/08/07 04:00:34;;;;;;;19.25;9.80;;;;;;;19.34;100.00;99976.51;1681035;83;21151;-58
2021/08/07 04:03:02;;;;;;;17.60;10.18;;;;;;;19.30;100.00;99979.13;1692573;83;21042;-58
2021/08/07 04:05:30;;;;;;;15.65;9.55;;;;;;;19.25;100.00;99986.33;1699224;83;21070;-59
2021/08/07 04:08:04;;;;;;;16.00;9.98;;;;;;;19.25;100.00;99990.88;1690762;83;21566;-59
2021/08/07 04:10:32;;;;;;;17.12;10.08;;;;;;;19.22;100.00;99992.50;1682543;84;21042;-58
2021/08/07 04:13:01;;;;;;;14.83;10.05;;;;;;;19.21;100.00;99998.41;1695918;83;21160;-58
2021/08/07 04:15:28;;;;;;;15.88;10.08;;;;;;;19.21;100.00;99991.63;1692367;83;21082;-59
2021/08/07 04:17:55;;;;;;;16.42;9.68;;;;;;;19.22;100.00;99984.34;1693698;83;21024;-60
2021/08/07 04:20:35;;;;;;;13.95;9.65;;;;;;;19.21;100.00;99989.42;1690057;83;21070;-59
2021/08/07 04:23:14;;;;;;;23.15;10.10;;;;;;;19.21;100.00;99985.34;1673043;83;21502;-60
2021/08/07 04:25:43;;;;;;;23.95;9.68;;;;;;;19.21;100.00;99977.19;1681509;83;21217;-59
2021/08/07 04:28:10;;;;;;;18.32;11.15;;;;;;;19.21;100.00;99981.27;1688584;83;21079;-59
2021/08/07 04:30:38;;;;;;;24.72;11.65;;;;;;;19.20;100.00;99980.90;1689788;83;21092;-59
2021/08/07 04:33:06;;;;;;;17.17;10.48;;;;;;;19.21;100.00;99989.42;1686976;83;21396;-59
2021/08/07 04:35:36;;;;;;;16.52;10.10;;;;;;;19.22;100.00;99990.62;1681970;84;21103;-59
2021/08/07 04:38:04;;;;;;;15.45;9.58;;;;;;;19.24;100.00;99990.52;1692555;83;21143;-60
2021/08/07 04:40:33;;;;;;;15.50;9.80;;;;;;;19.25;100.00;99986.80;1695430;83;21327;-59
2021/08/07 04:43:04;;;;;;;17.42;10.18;;;;;;;19.25;100.00;99998.55;1681452;83;21098;-58
2021/08/07 04:45:32;;;;;;;15.68;11.03;;;;;;;19.28;100.00;100000.13;1671396;84;21079;-58
2021/08/07 04:48:24;;;;;;;18.80;10.70;;;;;;;19.30;100.00;100002.22;1674899;84;21117;-59
2021/08/07 04:50:53;;;;;;;15.32;10.15;;;;;;;19.32;100.00;99996.16;1645182;86;21593;-60
2021/08/07 04:56:00;;;;;;;17.27;10.50;;;;;;;19.36;100.00;100019.39;1660441;85;21094;-58
2021/08/07 04:58:29;;;;;;;19.05;10.53;;;;;;;19.36;100.00;100026.19;1632717;85;21002;-58
2021/08/07 05:00:58;;;;;;;17.42;10.63;;;;;;;19.36;100.00;100052.00;1669927;85;21087;-59
2021/08/07 05:03:24;;;;;;;18.87;9.73;;;;;;;19.38;100.00;100066.33;1655918;85;21121;-59
2021/08/07 05:05:52;;;;;;;15.08;9.93;;;;;;;19.39;100.00;100069.89;1702957;83;21097;-59
2021/08/07 05:08:19;;;;;;;14.15;10.20;;;;;;;19.39;100.00;100081.64;1710628;83;21567;-59
2021/08/07 05:10:47;;;;;;;16.25;10.98;;;;;;;19.38;100.00;100093.51;1698791;83;21528;-59
2021/08/07 05:13:14;;;;;;;18.05;10.35;;;;;;;19.36;100.00;100102.28;1701338;83;21032;-59
2021/08/07 05:15:41;;;;;;;18.92;10.70;;;;;;;19.39;100.00;100121.53;1701474;83;21076;-60
2021/08/07 05:18:10;;;;;;;15.32;10.55;;;;;;;19.39;100.00;100126.48;1717344;83;21052;-59
2021/08/07 05:20:38;;;;;;;17.60;10.32;;;;;;;19.39;100.00;100137.84;1715357;81;21164;-59
2021/08/07 05:23:05;;;;;;;19.70;10.25;;;;;;;19.38;100.00;100149.22;1700527;83;21514;-59
2021/08/07 05:25:33;;;;;;;15.03;9.93;;;;;;;19.36;100.00;100153.92;1702689;83;21167;-60
2021/08/07 05:28:00;;;;;;;14.95;10.18;;;;;;;19.34;100.00;100168.10;1704202;83;21084;-59
2021/08/07 05:30:28;;;;;;;17.07;9.90;;;;;;;19.33;100.00;100170.45;1696966;83;21099;-59
2021/08/07 05:32:57;;;;;;;13.28;9.75;;;;;;;19.34;100.00;100178.97;1698688;83;21059;-58
2021/08/07 05:35:24;;;;;;;19.42;10.03;;;;;;;19.33;100.00;100178.61;1661675;84;21055;-58
2021/08/07 05:37:54;;;;;;;15.18;11.18;;;;;;;19.35;100.00;100196.16;1655526;84;21170;-59
2021/08/07 05:40:21;;;;;;;21.27;11.25;;;;;;;19.36;100.00;100201.48;1675537;84;21171;-58
2021/08/07 05:42:50;;;;;;;16.02;10.82;;;;;;;19.40;100.00;100215.67;1660402;85;21140;-58
2021/08/07 05:45:17;;;;;;;17.62;10.48;;;;;;;19.42;100.00;100221.36;1701308;83;21613;-59
2021/08/07 05:47:45;;;;;;;20.62;11.63;;;;;;;19.45;100.00;100230.63;1719393;83;21080;-59
2021/08/07 05:50:12;;;;;;;16.15;10.43;;;;;;;19.51;100.00;100225.67;1694771;83;21116;-59
2021/08/07 05:52:40;;;;;;;17.10;10.70;;;;;;;19.56;100.00;100231.59;1665202;84;22154;-59
2021/08/07 05:55:10;;;;;;;16.30;10.70;;;;;;;19.59;100.00;100234.94;1698334;83;21074;-59
2021/08/07 05:57:38;;;;;;;20.45;10.65;;;;;;;19.61;100.00;100234.83;1642253;85;21589;-59
2021/08/07 06:00:10;;;;;;;20.57;10.95;;;;;;;19.63;100.00;100243.72;1709471;83;21541;-59
2021/08/07 06:02:46;;;;;;;18.48;10.90;;;;;;;19.61;100.00;100234.31;1684423;83;21112;-59
2021/08/07 06:05:15;;;;;;;16.80;10.20;;;;;;;19.60;100.00;100243.97;1713374;82;21276;-58
2021/08/07 06:07:44;;;;;;;21.23;10.90;;;;;;;19.59;100.00;100235.45;1710251;82;21068;-59
2021/08/07 06:10:11;;;;;;;18.10;10.72;;;;;;;19.59;100.00;100240.89;1717826;82;21027;-59
2021/08/07 06:12:39;;;;;;;18.42;10.80;;;;;;;19.59;100.00;100240.37;1695214;83;21608;-59
2021/08/07 06:15:34;;;;;;;15.40;9.98;;;;;;;19.56;100.00;100239.27;1712568;82;21092;-61
2021/08/07 06:18:02;;;;;;;19.67;10.43;;;;;;;19.55;100.00;100243.45;1688238;83;20957;-59
2021/08/07 06:20:31;;;;;;;15.60;9.95;;;;;;;19.52;100.00;100243.71;1709197;82;21138;-59
2021/08/07 06:22:58;;;;;;;17.57;10.40;;;;;;;19.51;100.00;100241.98;1719048;82;21607;-60
2021/08/07 06:25:26;;;;;;;22.98;11.40;;;;;;;19.51;100.00;100255.58;1691585;83;22171;-59
2021/08/07 06:27:56;;;;;;;16.70;10.20;;;;;;;19.49;100.00;100256.20;1692482;83;21417;-60
2021/08/07 06:30:26;;;;;;;21.42;11.00;;;;;;;19.46;100.00;100254.09;1710324;83;21125;-60
2021/08/07 06:32:53;;;;;;;18.87;10.55;;;;;;;19.44;100.00;100234.81;1709135;82;21012;-59
2021/08/07 06:35:21;;;;;;;17.00;10.13;;;;;;;19.45;100.00;100237.42;1722336;83;21066;-60
2021/08/07 06:37:49;;;;;;;21.75;11.00;;;;;;;19.45;100.00;100236.06;1708771;83;21084;-59
2021/08/07 06:40:16;;;;;;;15.83;10.25;;;;;;;19.47;100.00;100240.87;1722484;82;21110;-59
2021/08/07 06:42:44;;;;;;;15.00;9.25;;;;;;;19.45;100.00;100237.91;1720743;83;21128;-59
2021/08/07 06:45:18;;;;;;;14.43;8.95;;;;;;;19.44;100.00;100247.92;1713321;83;21088;-59
2021/08/07 06:47:46;;;;;;;16.00;9.88;;;;;;;19.41;100.00;100250.89;1684754;83;21023;-59
2021/08/07 06:50:13;;;;;;;15.32;9.90;;;;;;;19.40;100.00;100258.68;1705024;83;21045;-59
2021/08/07 06:52:40;;;;;;;17.25;9.90;;;;;;;19.37;100.00;100250.78;1731566;81;21020;-59
2021/08/07 06:55:09;;;;;;;13.62;9.55;;;;;;;19.37;100.00;100274.36;1705704;83;21825;-65
2021/08/07 06:57:40;;;;;;;13.75;9.38;;;;;;;19.33;100.00;100262.86;1694276;83;21746;-65
2021/08/07 07:00:12;;;;;;;21.17;10.23;;;;;;;19.30;100.00;100265.34;1719022;83;21014;-65
2021/08/07 07:02:39;;;;;;;20.25;10.68;;;;;;;19.30;100.00;100264.47;1704258;82;20982;-66
2021/08/07 07:05:07;;;;;;;17.45;10.05;;;;;;;19.29;100.00;100255.94;1697993;82;21998;-66
2021/08/07 07:07:37;;;;;;;25.72;12.13;;;;;;;19.29;100.00;100251.87;1670330;83;21774;-66
2021/08/07 07:10:09;;;;;;;24.57;12.43;;;;;;;19.28;100.00;100244.70;1691189;83;21084;-65
2021/08/07 07:12:38;;;;;;;20.95;12.33;;;;;;;19.25;100.00;100244.95;1682029;83;21107;-65
2021/08/07 07:15:06;;;;;;;17.67;11.20;;;;;;;19.27;100.00;100234.82;1676511;83;20959;-66
2021/08/07 07:17:34;;;;;;;24.47;12.70;;;;;;;19.31;100.00;100232.22;1698890;83;21040;-65
2021/08/07 07:20:02;;;;;;;20.75;11.73;;;;;;;19.30;100.00;100223.22;1716981;82;21093;-65
2021/08/07 07:22:31;;;;;;;19.12;11.95;;;;;;;19.31;100.00;100215.92;1721182;82;20991;-67
2021/08/07 07:25:00;;;;;;;19.98;12.88;;;;;;;19.34;100.00;100227.89;1703205;83;21024;-68
2021/08/07 07:27:27;;;;;;;20.05;11.55;;;;;;;19.35;100.00;100221.50;1720421;83;21077;-67
2021/08/07 07:29:54;;;;;;;20.48;12.93;;;;;;;19.35;100.00;100221.50;1714252;83;21083;-68
2021/08/07 07:32:22;;;;;;;20.15;13.55;;;;;;;19.34;100.00;100242.84;1712256;83;21596;-68
2021/08/07 07:34:51;;;;;;;21.97;12.35;;;;;;;19.32;100.00;100216.28;1708360;83;21007;-68
2021/08/07 07:37:18;;;;;;;17.37;11.43;;;;;;;19.32;100.00;100223.08;1701203;83;22038;-68
2021/08/07 07:39:45;;;;;;;18.80;12.03;;;;;;;19.34;100.00;100238.77;1707351;82;21554;-69
2021/08/07 07:42:12;;;;;;;20.90;12.58;;;;;;;19.36;100.00;100216.44;1710483;83;21504;-68
2021/08/07 07:44:41;;;;;;;22.95;12.82;;;;;;;19.41;100.00;100213.32;1703342;83;21131;-68
2021/08/07 07:47:08;;;;;;;21.42;12.55;;;;;;;19.44;100.00;100207.16;1711912;83;21137;-68
2021/08/07 07:49:35;;;;;;;18.77;11.08;;;;;;;19.49;100.00;100212.70;1724399;81;21104;-68
2021/08/07 07:52:03;;;;;;;18.00;11.40;;;;;;;19.51;100.00;100206.16;1689031;83;20980;-59
2021/08/07 07:54:30;;;;;;;23.30;10.60;;;;;;;19.57;100.00;100227.91;1694977;84;22057;-60
2021/08/07 07:56:58;;;;;;;18.52;11.05;;;;;;;19.60;100.00;100187.73;1700115;83;21561;-60
2021/08/07 07:59:25;;;;;;;16.40;10.48;;;;;;;19.68;100.00;100214.29;1687549;83;21106;-59
2021/08/07 08:01:53;;;;;;;16.85;10.03;;;;;;;19.73;100.00;100190.29;1652737;84;21024;-60
2021/08/07 08:04:20;;;;;;;18.67;10.32;;;;;;;19.80;100.00;100158.02;1643836;85;21269;-60
2021/08/07 08:06:48;;;;;;;20.27;10.38;;;;;;;19.88;100.00;100161.45;1665925;84;21109;-62
2021/08/07 08:09:16;;;;;;;22.25;11.10;;;;;;;19.97;100.00;100147.61;1688463;83;21150;-61
2021/08/07 08:11:43;;;;;;;18.75;9.85;;;;;;;20.10;100.00;100147.44;1693313;83;20987;-61
2021/08/07 08:14:12;;;;;;;14.30;9.43;;;;;;;20.19;100.00;100131.67;1669378;84;21043;-61
2021/08/07 08:16:40;;;;;;;16.07;9.53;;;;;;;20.26;100.00;100123.84;1690303;83;21074;-60
2021/08/07 08:19:11;;;;;;;13.80;9.25;;;;;;;20.35;100.00;100133.08;1686524;84;21062;-68
2021/08/07 08:21:38;;;;;;;14.60;9.23;;;;;;;20.42;100.00;100124.25;1674324;82;21207;-67
2021/08/07 08:24:07;;;;;;;15.50;8.63;;;;;;;20.53;100.00;100132.85;1681567;82;21078;-68
2021/08/07 08:26:35;;;;;;;10.63;8.33;;;;;;;20.67;100.00;100144.38;1677008;84;21102;-67
2021/08/07 08:29:02;;;;;;;11.33;8.75;;;;;;;20.79;100.00;100122.88;1672428;84;21067;-67
2021/08/07 08:31:29;;;;;;;16.23;8.35;;;;;;;20.93;100.00;100132.59;1682403;82;21654;-67
2021/08/07 08:33:56;;;;;;;12.50;6.78;;;;;;;21.10;97.96;100139.25;1695989;83;21394;-67
2021/08/07 08:36:26;;;;;;;10.32;7.03;;;;;;;21.15;94.23;100198.32;1703283;83;21065;-68
2021/08/07 08:38:53;;;;;;;14.68;7.47;;;;;;;21.20;93.23;100148.83;1689404;83;21456;-68
2021/08/07 08:41:23;;;;;;;17.77;8.30;;;;;;;21.28;91.86;100183.09;1688187;83;21046;-69
2021/08/07 08:43:57;;;;;;;14.65;7.00;;;;;;;21.37;91.42;100169.14;1684300;83;21507;-70
2021/08/07 08:46:24;;;;;;;;;;;;;;;21.49;90.23;100203.10;1692581;83;21145;-68
2021/08/07 08:48:51;;;;;;;15.43;6.97;;;;;;;21.59;89.64;100189.02;1704508;82;20180;-67
2021/08/07 08:51:19;;;;;;;13.15;6.95;;;;;;;21.75;89.34;100208.44;1695632;82;21053;-67
2021/08/07 08:53:46;;;;;;;12.47;6.15;;;;;;;21.93;88.34;100180.48;1694024;83;21090;-68
2021/08/07 08:56:13;;;;;;;9.58;5.60;;;;;;;22.03;84.85;100210.02;1680746;84;21067;-69
2021/08/07 08:58:43;;;;;;;9.43;5.62;;;;;;;22.07;83.57;100184.66;1632054;85;21128;-69
2021/08/07 09:01:11;;;;;;;12.33;6.03;;;;;;;22.08;81.22;100173.25;1690856;84;21034;-69
2021/08/07 09:03:38;;;;;;;10.45;5.25;;;;;;;22.12;81.08;100162.39;1712143;83;21098;-69
2021/08/07 09:06:06;;;;;;;10.75;5.10;;;;;;;22.10;80.52;100157.59;1668860;83;21011;-69
2021/08/07 09:08:34;;;;;;;9.70;5.20;;;;;;;22.07;79.78;100152.42;1703727;82;21046;-70
2021/08/07 09:11:22;;;;;;;7.95;4.78;;;;;;;22.01;79.64;100161.55;1686425;84;21532;-69
2021/08/07 09:13:51;;;;;;;15.90;5.40;;;;;;;21.96;79.89;100158.36;1695784;83;21126;-68
2021/08/07 09:16:18;;;;;;;17.35;5.17;;;;;;;21.91;80.19;100122.45;1680594;84;21523;-69
2021/08/07 09:18:54;;;;;;;11.03;4.97;;;;;;;21.87;79.92;100131.94;1689943;84;21580;-69
2021/08/07 09:21:21;;;;;;;8.73;5.12;;;;;;;21.85;80.54;100175.72;1652171;85;21082;-69
2021/08/07 09:23:51;;;;;;;8.73;5.00;;;;;;;21.82;79.98;100160.16;1695449;82;21793;-70
2021/08/07 09:26:22;;;;;;;8.13;5.25;;;;;;;21.76;81.12;100135.66;1621032;84;21672;-69
2021/08/07 09:28:54;;;;;;;6.65;5.00;;;;;;;21.71;81.13;100144.27;1667731;85;21058;-69
2021/08/07 09:31:23;;;;;;;11.45;4.42;;;;;;;21.64;80.93;100155.84;1647305;85;21057;-69
2021/08/07 09:34:19;;;;;;;6.78;4.58;;;;;;;21.57;80.47;100146.02;1692781;83;21036;-68
2021/08/07 09:36:53;;;;;;;8.98;4.67;;;;;;;21.54;80.21;100129.91;1681439;84;21140;-69
2021/08/07 09:39:42;;;;;;;7.95;4.55;;;;;;;21.58;81.41;100168.20;1697191;84;21077;-68
2021/08/07 09:42:11;;;;;;;9.90;4.65;;;;;;;21.62;81.59;100162.81;1699424;84;21018;-69
2021/08/07 09:44:38;;;;;;;9.00;4.33;;;;;;;21.66;80.89;100164.28;1697020;83;21073;-69
2021/08/07 09:47:09;;;;;;;6.72;4.10;;;;;;;21.68;80.25;100182.73;1695047;83;21086;-69
2021/08/07 09:49:41;;;;;;;7.00;4.80;;;;;;;21.64;78.96;100227.64;1656092;85;22057;-69
2021/08/07 09:52:08;;;;;;;5.70;4.40;;;;;;;21.56;80.07;100181.95;1651582;84;21110;-69
2021/08/07 09:54:39;;;;;;;9.50;5.40;;;;;;;21.52;80.33;100197.36;1691041;83;21472;-69
2021/08/07 09:57:05;;;;;;;11.63;4.80;;;;;;;21.52;81.41;100190.55;1706539;83;21046;-69
2021/08/07 09:59:44;;;;;;;6.90;4.55;;;;;;;21.59;82.24;100180.83;1700366;83;22192;-68
2021/08/07 10:02:35;;;;;;;5.95;3.85;;;;;;;21.67;82.39;100182.38;1699796;83;21428;-68
2021/08/07 10:05:08;;;;;;;9.20;4.20;;;;;;;21.69;81.61;100200.83;1670742;83;21129;-68
2021/08/07 10:07:35;;;;;;;6.17;4.30;;;;;;;21.70;81.68;100206.64;1695402;83;21118;-69
2021/08/07 10:10:20;;;;;;;6.72;4.80;;;;;;;21.79;82.45;100209.55;1686145;83;21436;-69
2021/08/07 10:12:51;;;;;;;6.17;4.75;;;;;;;21.86;81.63;100228.45;1682664;83;21081;-68
2021/08/07 10:15:23;;;;;;;12.37;5.28;;;;;;;21.92;81.73;100219.69;1681445;82;21499;-68
2021/08/07 10:17:50;;;;;;;5.05;4.10;;;;;;;21.95;81.43;100223.49;1703875;83;21034;-69
2021/08/07 10:20:17;;;;;;;7.22;4.33;;;;;;;22.06;81.51;100235.31;1693299;83;21071;-59
2021/08/07 10:22:44;;;;;;;7.72;4.28;;;;;;;22.20;81.36;100222.59;1696155;83;21508;-60
2021/08/07 10:25:12;;;;;;;5.40;3.77;;;;;;;22.30;80.95;100234.39;1672117;83;21089;-60
2021/08/07 10:27:39;;;;;;;10.65;3.80;;;;;;;22.40;80.30;100228.06;1684282;83;21202;-59
2021/08/07 10:30:11;;;;;;;4.80;3.12;;;;;;;22.54;79.36;100229.03;1704160;83;21043;-60
2021/08/07 10:33:02;;;;;;;5.58;3.52;;;;;;;22.63;76.43;100259.20;1692340;82;21571;-67
2021/08/07 10:35:30;;;;;;;14.63;3.92;;;;;;;22.62;75.98;100248.80;1658087;85;21048;-59
2021/08/07 10:37:58;;;;;;;10.28;3.60;;;;;;;22.63;76.14;100240.97;1663504;84;21484;-60
2021/08/07 10:40:27;;;;;;;8.68;3.50;;;;;;;22.68;75.39;100240.02;1650832;85;21126;-60
2021/08/07 10:42:54;;;;;;;8.40;3.75;;;;;;;22.79;74.29;100252.66;1657856;85;21015;-68
2021/08/07 10:45:23;;;;;;;5.45;3.12;;;;;;;22.83;73.47;100255.45;1668590;85;21599;-59
2021/08/07 10:47:51;;;;;;;9.38;3.17;;;;;;;22.86;72.47;100256.52;1670692;85;21054;-61
2021/08/07 10:50:34;;;;;;;6.80;3.05;;;;;;;22.88;71.16;100264.10;1662452;85;21113;-60
2021/08/07 10:53:25;;;;;;;8.95;2.85;;;;;;;22.84;69.44;100270.00;1644504;84;21152;-68
2021/08/07 10:55:55;;;;;;;13.35;3.20;;;;;;;22.80;70.11;100259.00;1620935;86;21571;-60
2021/08/07 10:58:44;;;;;;;7.00;2.77;;;;;;;22.83;70.31;100249.98;1619694;88;21544;-60
2021/08/07 11:01:25;;;;;;;6.05;2.80;;;;;;;22.92;69.57;100252.88;1669668;85;21056;-60
2021/08/07 11:04:09;;;;;;;5.42;2.27;;;;;;;22.87;68.28;100306.08;1646288;85;21097;-60
2021/08/07 11:06:46;;;;;;;14.05;3.72;;;;;;;22.80;66.91;100285.81;1661642;85;21215;-59
2021/08/07 11:09:27;;;;;;;15.18;3.10;;;;;;;22.78;67.46;100282.88;1654941;84;21160;-68
2021/08/07 11:12:15;;;;;;;12.15;3.22;;;;;;;22.80;68.16;100257.11;1663916;85;21051;-68
2021/08/07 11:14:49;;;;;;;10.13;2.98;;;;;;;22.86;69.48;100259.25;1653457;85;21705;-69
2021/08/07 11:17:22;;;;;;;5.87;2.67;;;;;;;22.93;66.64;100273.72;1657211;85;24365;-61
2021/08/07 11:20:04;;;;;;;8.23;2.70;;;;;;;22.89;66.01;100320.48;1651153;85;21130;-61
2021/08/07 11:22:40;;;;;;;7.37;2.87;;;;;;;22.88;66.12;100295.53;1662680;85;21020;-60
2021/08/07 11:25:11;;;;;;;4.25;3.20;;;;;;;22.92;67.93;100295.23;1645248;85;21519;-60
2021/08/07 11:27:55;;;;;;;6.25;3.33;;;;;;;22.93;68.12;100289.61;1647399;85;21099;-67
2021/08/07 11:30:37;;;;;;;4.45;2.47;;;;;;;22.96;68.33;100308.44;1659238;85;21142;-68
2021/08/07 11:33:14;;;;;;;4.72;2.75;;;;;;;22.97;67.76;100317.52;1666689;85;21215;-72
2021/08/07 11:35:49;;;;;;;9.10;2.92;;;;;;;22.99;67.88;100293.63;1662688;84;21063;-68